Accueil
METAR-TAF:

METAR-TAF

Aéroports :

Brize Norton, Angleterre

latitude: 51-45N, longitude: 001-35W, altitude: 88 m

Observation

Le bulletin a été fait il y a 1 heure et 3 minutes, à 23:50 UTC
Vent 5 kt de nord-est
Température 2°C
Humidité 87%
Pression 1025 hPa
Visibilité 10 km ou plus
Nuages épars à une hauteur de 2800 ft

METAR: EGVN 212350Z 04005KT 9999 SCT028 02/00 Q1025 BLU NOSIG

Heure: 00:53 (00:53 UTC)

Prévision

Le bulletin a été fait il y a 2 heures et 32 minutes, à 22:21 UTC
Prévision valable du 22 à 00 UTC au 22 à 24 UTC
Vent 7 kt de est/nord-est
Visibilité 10 km ou plus
Nuages épars à une hauteur de 2500 ft

TAF: EGVN 212221Z 2200/2224 06007KT 9999 SCT025

Observations et prévisions météorologiques de plus de 4000 aéroports (messages METAR et TAF).

Les stations disponibles sont représentées par des disques jaunes et rouges sur la carte.

Passer la souris dessus pour voir le nom de la station.

Cliquer dessus pour voir les observations et prévisions météorologiques.

Pour changer de carte: cliquez sur les boutons verts avec une croix noire pour zoomer, sur le bouton vert avec un tiret pour effectuer un zoom arrière, ou sur les flèches vertes pour les cartes adjacentes.


METAR-TAF: